Time;durP1;ratioP1;P1;durP2;ratioP2;P2;SDS_P1;SDS_P2;PMS_P1;PMS_P2;Temp;Humidity;BMP_temperature;BMP_pressure;BME280_temperature;BME280_humidity;BME280_pressure;Samples;Min_cycle;Max_cycle;Signal;HPM_P1;HPM_P2
2023/05/21 00:01:25;;;;;;;11.18;9.98;;;12.40;1.00;;;;;;6145821;23;20480;-81
2023/05/21 00:03:50;;;;;;;11.10;9.98;;;12.30;1.00;;;;;;6145319;23;20152;-82
2023/05/21 00:06:16;;;;;;;10.73;9.82;;;12.30;1.00;;;;;;6118809;23;20191;-81
2023/05/21 00:08:42;;;;;;;11.70;10.50;;;12.30;1.00;;;;;;6145625;23;20176;-81
2023/05/21 00:11:08;;;;;;;11.15;10.15;;;12.20;2.70;;;;;;6145234;23;20631;-81
2023/05/21 00:13:34;;;;;;;11.70;10.63;;;12.20;1.00;;;;;;6119044;23;20163;-81
2023/05/21 00:15:59;;;;;;;12.25;10.95;;;12.10;38.10;;;;;;6118929;23;20251;-81
2023/05/21 00:18:25;;;;;;;11.90;10.80;;;12.00;99.90;;;;;;6118689;23;20187;-81
2023/05/21 00:20:51;;;;;;;12.10;10.95;;;11.90;99.90;;;;;;6119049;23;20167;-81
2023/05/21 00:23:18;;;;;;;11.50;10.10;;;11.90;99.90;;;;;;6144508;23;20509;-81
2023/05/21 00:25:44;;;;;;;12.77;11.50;;;11.90;99.90;;;;;;6118965;23;20190;-82
2023/05/21 00:28:10;;;;;;;11.98;10.77;;;11.80;99.90;;;;;;6118771;23;20160;-81
2023/05/21 00:30:35;;;;;;;12.27;11.10;;;11.80;99.90;;;;;;6117644;23;20206;-81
2023/05/21 00:33:01;;;;;;;11.75;10.68;;;11.80;1.00;;;;;;6120991;23;20667;-81
2023/05/21 00:35:28;;;;;;;12.07;10.98;;;11.80;1.00;;;;;;6147569;23;20187;-81
2023/05/21 00:37:53;;;;;;;12.50;11.18;;;11.70;1.00;;;;;;6121306;23;20971;-81
2023/05/21 00:40:19;;;;;;;11.57;10.57;;;11.70;1.00;;;;;;6121262;23;20179;-81
2023/05/21 00:42:46;;;;;;;12.10;11.02;;;11.80;99.90;;;;;;6148255;23;20278;-83
2023/05/21 00:45:13;;;;;;;11.70;10.50;;;11.80;1.00;;;;;;6147813;23;20207;-81
2023/05/21 00:47:40;;;;;;;12.35;11.18;;;11.80;1.00;;;;;;6121145;23;20170;-82
2023/05/21 00:50:07;;;;;;;12.27;11.07;;;11.80;1.00;;;;;;6121128;23;20202;-82
2023/05/21 00:52:40;;;;;;;11.02;9.93;;;11.80;99.90;;;;;;6121476;23;20485;-81
2023/05/21 00:55:06;;;;;;;12.48;11.27;;;11.80;99.90;;;;;;6121605;23;20175;-81
2023/05/21 00:57:33;;;;;;;12.82;11.63;;;11.70;99.90;;;;;;6121284;23;20167;-81
2023/05/21 00:59:58;;;;;;;12.10;10.98;;;11.70;1.00;;;;;;6147182;23;20241;-81
2023/05/21 01:02:24;;;;;;;12.95;11.63;;;11.70;1.00;;;;;;6121338;23;20155;-81
2023/05/21 01:04:54;;;;;;;13.27;11.98;;;11.60;1.00;;;;;;6121526;23;20195;-81
2023/05/21 01:07:19;;;;;;;11.95;10.75;;;11.50;1.00;;;;;;6147467;23;20264;-82
2023/05/21 01:09:45;;;;;;;12.05;10.95;;;11.40;1.00;;;;;;6121101;23;20222;-81
2023/05/21 01:12:12;;;;;;;13.63;12.23;;;11.40;1.00;;;;;;6121229;23;20538;-81
2023/05/21 01:14:38;;;;;;;12.93;11.73;;;11.40;86.90;;;;;;6148004;23;20362;-81
2023/05/21 01:17:05;;;;;;;13.80;12.60;;;11.40;99.90;;;;;;6149513;23;20160;-81
2023/05/21 01:19:31;;;;;;;13.07;11.57;;;11.50;99.90;;;;;;6147589;23;20465;-82
2023/05/21 01:22:03;;;;;;;13.38;11.68;;;11.50;99.90;;;;;;6122057;23;20163;-82
2023/05/21 01:24:28;;;;;;;13.27;12.00;;;11.40;99.90;;;;;;6147654;23;20255;-81
2023/05/21 01:26:54;;;;;;;14.05;12.68;;;11.40;99.90;;;;;;6147762;23;20211;-81
2023/05/21 01:29:20;;;;;;;14.35;12.48;;;11.40;99.90;;;;;;6120680;23;20529;-82
2023/05/21 01:32:25;;;;;;;12.57;11.38;;;11.40;1.00;;;;;;6121167;23;20164;-82
2023/05/21 01:34:53;;;;;;;13.10;11.90;;;11.40;99.90;;;;;;6147134;23;20140;-82
2023/05/21 01:37:33;;;;;;;14.25;12.85;;;11.40;1.00;;;;;;6120915;23;20183;-82
2023/05/21 01:40:09;;;;;;;14.02;12.63;;;11.40;1.00;;;;;;6146947;23;20237;-82
2023/05/21 01:42:37;;;;;;;14.52;13.13;;;11.40;1.00;;;;;;6121240;23;20210;-82
2023/05/21 01:45:05;;;;;;;13.77;12.38;;;11.40;1.00;;;;;;6119422;23;20577;-80
2023/05/21 01:47:34;;;;;;;14.30;12.83;;;11.30;1.00;;;;;;6146123;23;20152;-81
2023/05/21 01:50:00;;;;;;;12.77;11.55;;;11.30;1.00;;;;;;6119674;23;20262;-81
2023/05/21 01:52:26;;;;;;;13.88;12.57;;;11.20;99.90;;;;;;6120559;23;20639;-81
2023/05/21 01:54:53;;;;;;;13.68;12.35;;;11.10;99.90;;;;;;6120197;23;20168;-81
2023/05/21 01:57:19;;;;;;;13.32;12.02;;;11.10;99.90;;;;;;6120131;23;20164;-81
2023/05/21 01:59:46;;;;;;;13.75;12.45;;;11.00;99.90;;;;;;6120127;23;20192;-80
2023/05/21 02:02:12;;;;;;;14.23;12.73;;;11.00;1.00;;;;;;6120274;23;20164;-81
2023/05/21 02:04:40;;;;;;;14.63;13.23;;;11.00;1.00;;;;;;6145383;23;20181;-82
2023/05/21 02:07:06;;;;;;;13.10;11.90;;;11.00;1.00;;;;;;6120046;23;20160;-81
2023/05/21 02:09:31;;;;;;;13.73;12.43;;;10.90;9.10;;;;;;6119918;23;20202;-81
2023/05/21 02:11:57;;;;;;;14.40;13.10;;;10.90;99.90;;;;;;6119846;23;20168;-83
2023/05/21 02:14:24;;;;;;;14.80;13.40;;;10.90;99.90;;;;;;6120053;23;20222;-81
2023/05/21 02:16:51;;;;;;;14.80;13.40;;;10.80;99.90;;;;;;6119531;23;20363;-81
2023/05/21 02:19:17;;;;;;;14.73;13.32;;;10.70;1.00;;;;;;6119893;23;20179;-81
2023/05/21 02:21:42;;;;;;;14.17;12.87;;;10.60;1.00;;;;;;6145940;23;20155;-80
2023/05/21 02:24:08;;;;;;;15.50;13.90;;;10.50;99.90;;;;;;6145686;23;20152;-81
2023/05/21 02:26:33;;;;;;;14.43;13.03;;;10.50;1.00;;;;;;6145819;23;20155;-81
2023/05/21 02:28:59;;;;;;;15.17;13.77;;;10.50;99.90;;;;;;6119674;23;20179;-80
2023/05/21 02:31:25;;;;;;;14.67;13.23;;;10.40;99.90;;;;;;6119630;23;20658;-81
2023/05/21 02:33:50;;;;;;;13.43;12.17;;;10.40;1.00;;;;;;6119658;23;20186;-82
2023/05/21 02:36:17;;;;;;;14.33;13.03;;;10.40;1.00;;;;;;6145772;23;20159;-81
2023/05/21 02:38:44;;;;;;;14.90;13.50;;;10.30;1.00;;;;;;6145622;23;20179;-81
2023/05/21 02:41:10;;;;;;;15.73;14.23;;;10.30;99.90;;;;;;6145737;23;20186;-82
2023/05/21 02:43:36;;;;;;;15.80;14.00;;;10.30;1.00;;;;;;6119231;23;20692;-81
2023/05/21 02:46:02;;;;;;;15.47;14.03;;;10.20;1.00;;;;;;6145453;23;20206;-82
2023/05/21 02:48:27;;;;;;;13.90;12.70;;;10.60;99.90;;;;;;6145296;23;20219;-81
2023/05/21 02:50:53;;;;;;;14.97;13.57;;;10.20;99.90;;;;;;6118681;23;20500;-81
2023/05/21 02:53:18;;;;;;;15.10;13.70;;;10.50;1.00;;;;;;6145422;23;20202;-81
2023/05/21 02:55:44;;;;;;;15.40;14.00;;;10.20;1.00;;;;;;6144907;23;20164;-82
2023/05/21 02:58:12;;;;;;;14.03;12.73;;;10.20;1.00;;;;;;6145017;23;20275;-81
2023/05/21 03:00:37;;;;;;;15.17;13.63;;;10.20;1.00;;;;;;6118368;23;20184;-81
2023/05/21 03:03:03;;;;;;;15.17;13.73;;;10.20;92.60;;;;;;6118724;23;20171;-82
2023/05/21 03:05:29;;;;;;;15.00;13.50;;;10.20;99.90;;;;;;6118629;23;20682;-82
2023/05/21 03:07:55;;;;;;;16.07;14.57;;;10.20;19.60;;;;;;6145218;23;20491;-81
2023/05/21 03:10:20;;;;;;;15.57;14.07;;;10.20;99.90;;;;;;6118902;23;20176;-81
2023/05/21 03:12:46;;;;;;;16.33;14.73;;;10.10;99.90;;;;;;6144699;23;20211;-82
2023/05/21 03:15:13;;;;;;;15.37;13.83;;;10.20;1.00;;;;;;6118748;23;20170;-81
2023/05/21 03:17:40;;;;;;;15.67;14.17;;;10.20;99.90;;;;;;6118512;23;20221;-81
2023/05/21 03:20:07;;;;;;;16.27;14.70;;;10.20;99.90;;;;;;6118351;23;20306;-81
2023/05/21 03:22:33;;;;;;;16.07;14.47;;;10.20;99.90;;;;;;6144788;23;20179;-81
2023/05/21 03:25:00;;;;;;;15.40;14.00;;;10.20;99.90;;;;;;6144789;23;20262;-81
2023/05/21 03:27:26;;;;;;;15.43;14.00;;;10.10;1.00;;;;;;6144794;23;20336;-81
2023/05/21 03:29:53;;;;;;;16.07;14.53;;;10.10;1.00;;;;;;6118080;23;20180;-81
2023/05/21 03:32:19;;;;;;;16.20;14.50;;;10.10;1.00;;;;;;6118274;23;20218;-81
2023/05/21 03:34:44;;;;;;;15.33;13.83;;;10.10;1.00;;;;;;6145014;23;20163;-81
2023/05/21 03:37:10;;;;;;;15.40;14.00;;;10.10;1.00;;;;;;6118348;23;20492;-81
2023/05/21 03:39:36;;;;;;;16.17;14.67;;;10.20;1.00;;;;;;6144735;23;20545;-82
2023/05/21 03:42:01;;;;;;;14.97;13.47;;;10.20;99.90;;;;;;6144616;23;20151;-81
2023/05/21 03:44:27;;;;;;;14.50;13.17;;;10.30;99.90;;;;;;6144652;23;20180;-81
2023/05/21 03:46:52;;;;;;;15.33;13.87;;;10.30;1.00;;;;;;6145050;23;20610;-81
2023/05/21 03:49:19;;;;;;;15.10;13.67;;;10.40;1.00;;;;;;6144435;23;20531;-81
2023/05/21 03:51:44;;;;;;;15.17;13.60;;;10.40;1.00;;;;;;6144667;23;20238;-81
2023/05/21 03:54:10;;;;;;;14.87;13.43;;;10.50;1.00;;;;;;6144488;23;20605;-82
2023/05/21 03:56:35;;;;;;;13.60;12.40;;;10.50;99.90;;;;;;6118257;23;20554;-81
2023/05/21 03:59:01;;;;;;;14.67;13.27;;;10.50;99.90;;;;;;6144425;23;20771;-81
2023/05/21 04:01:27;;;;;;;14.13;12.73;;;10.60;1.00;;;;;;6144430;23;20588;-81
2023/05/21 04:03:52;;;;;;;15.03;13.60;;;10.70;1.00;;;;;;6144175;23;20151;-81
2023/05/21 04:06:18;;;;;;;15.37;13.97;;;10.70;1.00;;;;;;6144134;23;20247;-81
2023/05/21 04:08:43;;;;;;;14.85;13.52;;;10.80;1.00;;;;;;6117968;23;20213;-81
2023/05/21 04:11:09;;;;;;;15.25;13.77;;;10.90;1.00;;;;;;6117980;23;20155;-81
2023/05/21 04:13:35;;;;;;;15.03;13.53;;;11.00;99.90;;;;;;6118303;23;20155;-81
2023/05/21 04:16:00;;;;;;;14.47;13.07;;;11.00;99.90;;;;;;6118415;23;20596;-81
2023/05/21 04:18:26;;;;;;;14.23;12.82;;;11.10;1.00;;;;;;6117936;23;20278;-81
2023/05/21 04:20:52;;;;;;;14.38;12.95;;;11.20;1.00;;;;;;6144235;23;20507;-81
2023/05/21 04:23:18;;;;;;;13.15;11.77;;;11.20;1.00;;;;;;6144706;23;20770;-81
2023/05/21 04:25:43;;;;;;;14.13;12.93;;;11.30;1.00;;;;;;6144278;23;20180;-81
2023/05/21 04:28:09;;;;;;;15.23;13.80;;;11.00;99.90;;;;;;6118126;23;20156;-81
2023/05/21 04:30:35;;;;;;;16.45;14.85;;;11.40;1.00;;;;;;6117920;23;20193;-82
2023/05/21 04:33:02;;;;;;;13.82;12.43;;;11.50;1.00;;;;;;6144344;23;20160;-81
2023/05/21 04:35:27;;;;;;;16.05;14.55;;;11.60;1.00;;;;;;6117897;23;20548;-81
2023/05/21 04:37:53;;;;;;;16.27;14.68;;;11.60;99.90;;;;;;6117794;23;20210;-81
2023/05/21 04:40:23;;;;;;;14.45;13.15;;;11.60;99.90;;;;;;6117796;23;20250;-81
2023/05/21 04:42:49;;;;;;;17.48;15.88;;;11.60;99.90;;;;;;6144246;23;20156;-81
2023/05/21 04:45:16;;;;;;;16.60;15.02;;;11.70;99.90;;;;;;6144229;23;20179;-80
2023/05/21 04:47:42;;;;;;;16.35;14.77;;;11.80;1.00;;;;;;6144531;23;20180;-81
2023/05/21 04:50:09;;;;;;;15.25;13.85;;;11.80;99.90;;;;;;6144126;23;20187;-81
2023/05/21 04:52:35;;;;;;;16.85;15.27;;;11.90;1.00;;;;;;6118420;23;20156;-82
2023/05/21 04:55:01;;;;;;;16.02;14.48;;;12.10;99.90;;;;;;6117802;23;20431;-81
2023/05/21 04:57:28;;;;;;;15.60;14.10;;;12.20;99.90;;;;;;6144236;23;20159;-82
2023/05/21 04:59:54;;;;;;;15.68;14.18;;;12.40;76.70;;;;;;6117803;23;20221;-82
2023/05/21 05:02:19;;;;;;;14.80;13.40;;;12.70;99.90;;;;;;6117547;23;20613;-81
2023/05/21 05:04:45;;;;;;;15.55;13.95;;;12.90;1.00;;;;;;6118072;23;20191;-81
2023/05/21 05:07:11;;;;;;;18.80;14.50;;;13.20;89.00;;;;;;6144463;23;20231;-81
2023/05/21 05:09:36;;;;;;;14.68;13.38;;;13.50;1.00;;;;;;6117437;23;20211;-81
2023/05/21 05:12:02;;;;;;;14.98;13.52;;;13.00;99.90;;;;;;6144066;23;20251;-81
2023/05/21 05:14:27;;;;;;;14.88;13.45;;;13.70;99.90;;;;;;6118445;23;20606;-81
2023/05/21 05:16:53;;;;;;;14.80;13.40;;;13.90;1.00;;;;;;6144305;23;20159;-81
2023/05/21 05:19:19;;;;;;;15.10;13.80;;;14.00;1.00;;;;;;6119120;23;20184;-81
2023/05/21 05:21:45;;;;;;;14.93;13.52;;;14.10;1.00;;;;;;6119830;23;20181;-81
2023/05/21 05:24:10;;;;;;;13.75;12.45;;;14.10;1.00;;;;;;6119361;23;20170;-81
2023/05/21 05:26:36;;;;;;;15.05;13.75;;;14.20;1.00;;;;;;6146233;23;20151;-82
2023/05/21 05:29:02;;;;;;;14.48;13.18;;;14.30;1.00;;;;;;6146058;23;20179;-80
2023/05/21 05:31:27;;;;;;;13.90;12.55;;;14.30;1.00;;;;;;6119847;23;20187;-81
2023/05/21 05:33:54;;;;;;;14.88;13.50;;;14.30;1.00;;;;;;6119501;23;20267;-81
2023/05/21 05:36:19;;;;;;;13.73;12.48;;;14.40;1.00;;;;;;6119610;23;20175;-81
2023/05/21 05:38:45;;;;;;;14.57;13.30;;;14.50;1.00;;;;;;6145545;23;20517;-81
2023/05/21 05:41:11;;;;;;;15.75;14.35;;;14.50;1.00;;;;;;6119379;23;20171;-81
2023/05/21 05:43:37;;;;;;;15.43;14.02;;;14.60;1.00;;;;;;6148468;23;20211;-81
2023/05/21 05:46:03;;;;;;;17.40;15.65;;;14.80;1.00;;;;;;6124035;23;20187;-80
2023/05/21 05:48:28;;;;;;;16.98;15.30;;;14.90;1.00;;;;;;6123824;23;20151;-79
2023/05/21 05:50:55;;;;;;;17.23;15.57;;;15.10;1.00;;;;;;6149691;23;20210;-79
2023/05/21 05:53:21;;;;;;;16.13;14.73;;;15.10;99.90;;;;;;6150479;23;20159;-80
2023/05/21 05:55:47;;;;;;;17.55;16.02;;;15.30;99.90;;;;;;6123989;23;20167;-80
2023/05/21 05:58:12;;;;;;;17.08;15.57;;;15.40;99.90;;;;;;6123580;23;20207;-83
2023/05/21 06:00:38;;;;;;;16.50;15.07;;;15.60;99.90;;;;;;6123175;23;20187;-80
2023/05/21 06:03:04;;;;;;;16.88;15.27;;;15.60;99.90;;;;;;6124010;23;20167;-82
2023/05/21 06:05:30;;;;;;;16.13;14.73;;;15.70;99.90;;;;;;6123174;23;20192;-79
2023/05/21 06:07:55;;;;;;;16.27;14.88;;;16.50;99.90;;;;;;6122969;23;20522;-79
2023/05/21 06:10:21;;;;;;;18.10;16.42;;;16.10;99.90;;;;;;6149238;23;20276;-79
2023/05/21 06:12:46;;;;;;;18.45;16.65;;;15.80;99.90;;;;;;6149126;23;20163;-79
2023/05/21 06:15:13;;;;;;;16.10;14.70;;;15.70;99.90;;;;;;6149684;23;20709;-80
2023/05/21 06:17:39;;;;;;;16.98;15.38;;;15.70;99.90;;;;;;6149384;23;20163;-83
2023/05/21 06:20:07;;;;;;;16.95;15.32;;;15.70;99.90;;;;;;6123066;23;20187;-81
2023/05/21 06:22:33;;;;;;;17.30;15.65;;;15.90;99.90;;;;;;6123356;23;20501;-80
2023/05/21 06:24:59;;;;;;;17.15;15.65;;;16.00;99.90;;;;;;6149637;23;20186;-82
2023/05/21 06:27:24;;;;;;;20.10;18.20;;;16.00;99.90;;;;;;6150147;23;20350;-79
2023/05/21 06:29:50;;;;;;;20.60;18.70;;;16.90;99.90;;;;;;6124230;23;20708;-79
2023/05/21 06:32:15;;;;;;;20.35;18.35;;;16.10;99.90;;;;;;6123495;23;20611;-79
2023/05/21 06:34:41;;;;;;;21.52;19.30;;;16.10;99.90;;;;;;6149208;23;20218;-81
2023/05/21 06:37:07;;;;;;;22.67;20.48;;;17.00;99.90;;;;;;6123098;23;20183;-83
2023/05/21 06:39:32;;;;;;;21.85;19.75;;;17.00;99.90;;;;;;6122704;23;20535;-79
2023/05/21 06:41:58;;;;;;;22.77;20.27;;;17.30;58.40;;;;;;6122804;23;20163;-80
2023/05/21 06:44:23;;;;;;;20.67;18.65;;;17.80;21.90;;;;;;6123133;23;20202;-79
2023/05/21 06:46:49;;;;;;;20.35;18.42;;;18.80;1.00;;;;;;6122638;23;20156;-82
2023/05/21 06:49:15;;;;;;;18.55;16.85;;;18.40;1.00;;;;;;6148727;23;20254;-79
2023/05/21 06:51:40;;;;;;;20.23;18.33;;;18.80;1.00;;;;;;6122241;23;20170;-79
2023/05/21 06:54:06;;;;;;;20.55;18.48;;;18.50;1.00;;;;;;6122535;23;20619;-80
2023/05/21 06:56:31;;;;;;;20.00;18.20;;;18.90;1.00;;;;;;6122741;23;20170;-80
2023/05/21 06:58:58;;;;;;;21.67;19.67;;;19.10;1.00;;;;;;6148954;23;20172;-80
2023/05/21 07:01:23;;;;;;;21.23;19.23;;;19.30;1.00;;;;;;6122754;23;20167;-79
2023/05/21 07:03:49;;;;;;;23.17;20.95;;;19.40;1.00;;;;;;6123581;23;20730;-80
2023/05/21 07:06:15;;;;;;;22.55;20.35;;;19.50;1.00;;;;;;6122729;23;20600;-81
2023/05/21 07:08:41;;;;;;;21.48;19.58;;;20.00;1.00;;;;;;6148638;23;20182;-80
2023/05/21 07:11:06;;;;;;;22.10;20.10;;;21.10;1.00;;;;;;6122968;23;20604;-80
2023/05/21 07:13:33;;;;;;;21.85;19.80;;;21.50;1.00;;;;;;6148983;23;20203;-83
2023/05/21 07:15:59;;;;;;;21.83;19.83;;;21.80;1.00;;;;;;6122743;23;20171;-80
2023/05/21 07:18:24;;;;;;;22.10;20.15;;;21.30;1.00;;;;;;6122672;23;20521;-82
2023/05/21 07:20:50;;;;;;;22.40;20.38;;;20.30;1.00;;;;;;6122476;23;20523;-80
2023/05/21 07:23:15;;;;;;;22.30;20.20;;;20.10;1.00;;;;;;6122898;23;20203;-80
2023/05/21 07:25:41;;;;;;;21.20;19.20;;;19.70;1.00;;;;;;6122160;23;20198;-80
2023/05/21 07:28:06;;;;;;;19.90;18.08;;;19.60;1.00;;;;;;6148261;23;20155;-79
2023/05/21 07:30:32;;;;;;;23.33;21.15;;;19.40;1.00;;;;;;6148390;23;20190;-80
2023/05/21 07:32:58;;;;;;;22.05;19.85;;;19.80;1.00;;;;;;6148145;23;20528;-79
2023/05/21 07:35:23;;;;;;;21.08;19.17;;;19.50;1.00;;;;;;6122329;23;20175;-82
2023/05/21 07:37:49;;;;;;;22.10;20.10;;;19.50;1.00;;;;;;6122155;23;20190;-80
2023/05/21 07:40:15;;;;;;;21.52;19.52;;;19.80;1.00;;;;;;6122165;23;20636;-80
2023/05/21 07:42:40;;;;;;;21.15;19.25;;;19.60;1.00;;;;;;6121675;23;20600;-80
2023/05/21 07:45:06;;;;;;;22.33;20.23;;;19.70;1.00;;;;;;6121864;23;20191;-80
2023/05/21 07:47:32;;;;;;;20.58;18.58;;;19.60;1.00;;;;;;6121996;23;20170;-83
2023/05/21 07:49:57;;;;;;;22.35;20.33;;;19.60;1.00;;;;;;6121888;23;20215;-81
2023/05/21 07:52:23;;;;;;;24.35;21.92;;;19.20;1.00;;;;;;6122130;23;20155;-80
2023/05/21 07:54:49;;;;;;;23.70;21.50;;;19.20;1.00;;;;;;6121765;23;20202;-80
2023/05/21 07:57:15;;;;;;;21.88;19.77;;;18.90;1.00;;;;;;6122120;23;20178;-81
2023/05/21 07:59:41;;;;;;;22.85;20.70;;;19.20;1.00;;;;;;6121686;23;20524;-80
2023/05/21 08:02:06;;;;;;;20.83;19.02;;;20.10;1.00;;;;;;6122736;23;20179;-84
2023/05/21 08:04:32;;;;;;;23.02;20.88;;;19.30;1.00;;;;;;6148582;23;20187;-83
2023/05/21 08:06:58;;;;;;;22.02;19.85;;;19.10;1.00;;;;;;6122281;23;20155;-80
2023/05/21 08:09:23;;;;;;;22.80;20.48;;;19.40;1.00;;;;;;6122110;23;20498;-80
2023/05/21 08:11:49;;;;;;;22.17;20.10;;;19.60;1.00;;;;;;6147731;23;20163;-84
2023/05/21 08:14:14;;;;;;;21.88;19.77;;;19.60;1.00;;;;;;6122064;23;20170;-80
2023/05/21 08:16:40;;;;;;;23.25;20.92;;;19.80;1.00;;;;;;6122289;23;20631;-81
2023/05/21 08:19:05;;;;;;;22.88;20.55;;;19.90;1.00;;;;;;6122587;23;20222;-79
2023/05/21 08:21:31;;;;;;;22.05;20.05;;;19.90;1.00;;;;;;6122452;23;20156;-83
2023/05/21 08:23:59;;;;;;;23.00;21.00;;;19.80;1.00;;;;;;6122449;23;20167;-80
2023/05/21 08:26:25;;;;;;;22.58;20.67;;;20.50;1.00;;;;;;6148694;23;20583;-80
2023/05/21 08:28:50;;;;;;;22.70;20.55;;;20.40;1.00;;;;;;6122268;23;20214;-79
2023/05/21 08:31:19;;;;;;;21.83;19.77;;;20.10;1.00;;;;;;6148562;23;20154;-80
2023/05/21 08:33:52;;;;;;;23.20;21.00;;;20.10;1.00;;;;;;6122414;23;20163;-80
2023/05/21 08:36:18;;;;;;;22.85;20.75;;;19.90;1.00;;;;;;6122422;23;20163;-80
2023/05/21 08:38:44;;;;;;;21.58;19.60;;;20.30;1.00;;;;;;6148536;23;20183;-81
2023/05/21 08:41:11;;;;;;;23.00;20.88;;;20.70;1.00;;;;;;6148765;23;20691;-82
2023/05/21 08:43:38;;;;;;;23.55;21.35;;;21.00;1.00;;;;;;6122648;23;20170;-80
2023/05/21 08:46:05;;;;;;;21.55;19.65;;;21.30;1.00;;;;;;6149404;23;20187;-80
2023/05/21 08:48:31;;;;;;;20.85;19.05;;;21.90;1.00;;;;;;6123071;23;20160;-80
2023/05/21 08:50:58;;;;;;;21.83;19.88;;;21.40;1.00;;;;;;6122265;23;20264;-80
2023/05/21 08:53:26;;;;;;;20.83;19.02;;;21.90;1.00;;;;;;6149967;23;20455;-80
2023/05/21 08:55:54;;;;;;;21.38;19.42;;;22.10;1.00;;;;;;6151184;23;20239;-81
2023/05/21 08:58:20;;;;;;;18.95;17.27;;;22.10;1.00;;;;;;6124811;23;20168;-80
2023/05/21 09:00:46;;;;;;;20.98;19.08;;;22.10;1.00;;;;;;6124582;23;20198;-80
2023/05/21 09:03:13;;;;;;;22.52;20.48;;;22.00;1.00;;;;;;6151342;23;20159;-80
2023/05/21 09:05:43;;;;;;;20.70;18.90;;;21.70;1.00;;;;;;6125143;23;20197;-83
2023/05/21 09:08:20;;;;;;;20.52;18.73;;;22.00;1.00;;;;;;6151033;23;20194;-80
2023/05/21 09:10:49;;;;;;;21.92;20.08;;;22.20;1.00;;;;;;6125019;23;20534;-80
2023/05/21 09:13:16;;;;;;;21.58;19.67;;;22.20;1.00;;;;;;6125373;23;20504;-81
2023/05/21 09:15:42;;;;;;;21.23;19.30;;;22.50;1.00;;;;;;6125707;23;20170;-80
2023/05/21 09:18:08;;;;;;;20.73;18.92;;;22.50;1.00;;;;;;6124502;23;20513;-81
2023/05/21 09:20:33;;;;;;;21.65;19.55;;;22.60;1.00;;;;;;6119488;23;20186;-81
2023/05/21 09:23:03;;;;;;;23.00;21.00;;;22.20;1.00;;;;;;6120208;23;20171;-82
2023/05/21 09:25:29;;;;;;;22.35;20.25;;;22.40;1.00;;;;;;6119907;23;20187;-82
2023/05/21 09:27:55;;;;;;;21.13;19.13;;;22.10;1.00;;;;;;6119514;23;20371;-82
2023/05/21 09:30:21;;;;;;;20.58;18.65;;;22.40;1.00;;;;;;6119600;23;20202;-82
2023/05/21 09:32:55;;;;;;;20.50;18.60;;;22.60;1.00;;;;;;6145858;23;20663;-82
2023/05/21 09:35:21;;;;;;;22.48;20.40;;;22.60;1.00;;;;;;6145902;23;20147;-82
2023/05/21 09:37:47;;;;;;;20.92;19.13;;;22.60;1.00;;;;;;6119220;23;20253;-82
2023/05/21 09:40:17;;;;;;;21.63;19.58;;;23.10;1.00;;;;;;6145722;23;20207;-82
2023/05/21 09:42:51;;;;;;;21.08;19.30;;;22.80;1.00;;;;;;6119670;23;20174;-82
2023/05/21 09:45:21;;;;;;;21.10;19.30;;;22.80;1.00;;;;;;6119568;23;20531;-81
2023/05/21 09:47:48;;;;;;;18.95;17.23;;;23.10;1.00;;;;;;6119135;23;20160;-82
2023/05/21 09:50:19;;;;;;;19.83;18.02;;;23.40;1.00;;;;;;6119290;23;20183;-82
2023/05/21 09:52:46;;;;;;;19.38;17.65;;;23.00;1.00;;;;;;6146048;23;20232;-82
2023/05/21 09:55:12;;;;;;;19.60;17.80;;;22.90;1.00;;;;;;6145838;23;20584;-82
2023/05/21 09:57:42;;;;;;;19.58;17.88;;;23.10;1.00;;;;;;6119328;23;20160;-84
2023/05/21 10:00:16;;;;;;;18.38;16.85;;;23.00;1.00;;;;;;6119099;23;20230;-82
2023/05/21 10:02:44;;;;;;;18.00;16.35;;;23.20;1.00;;;;;;6119670;23;20159;-82
2023/05/21 10:05:10;;;;;;;18.05;16.35;;;22.80;1.00;;;;;;6118786;23;20191;-84
2023/05/21 10:07:37;;;;;;;18.33;16.73;;;22.70;1.00;;;;;;6145596;23;20161;-84
2023/05/21 10:10:05;;;;;;;17.52;16.02;;;22.70;1.00;;;;;;6119196;23;20176;-83
2023/05/21 10:12:32;;;;;;;17.58;16.00;;;23.00;1.00;;;;;;6119707;23;20218;-82
2023/05/21 10:15:03;;;;;;;17.42;15.73;;;23.00;1.00;;;;;;6145504;23;20167;-82
2023/05/21 10:17:29;;;;;;;18.95;17.25;;;22.90;1.00;;;;;;6119272;23;20182;-82
2023/05/21 10:19:55;;;;;;;18.02;16.42;;;23.10;1.00;;;;;;6119126;23;20188;-82
2023/05/21 10:22:24;;;;;;;17.25;15.82;;;23.10;1.00;;;;;;6119484;23;20163;-82
2023/05/21 10:24:53;;;;;;;17.10;15.52;;;23.40;1.00;;;;;;6119377;23;20187;-82
2023/05/21 10:27:21;;;;;;;17.13;15.55;;;23.60;1.00;;;;;;6119064;23;20156;-82
2023/05/21 10:29:48;;;;;;;16.65;15.23;;;23.80;1.00;;;;;;6145462;23;20254;-82
2023/05/21 10:32:15;;;;;;;16.88;15.38;;;23.30;1.00;;;;;;6145235;23;20544;-82
2023/05/21 10:34:42;;;;;;;16.80;15.20;;;23.50;1.00;;;;;;6118999;23;20608;-82
2023/05/21 10:37:09;;;;;;;15.90;14.60;;;23.60;1.00;;;;;;6144894;23;20564;-82
2023/05/21 10:39:37;;;;;;;17.52;15.82;;;23.60;1.00;;;;;;6119017;23;20214;-82
2023/05/21 10:42:22;;;;;;;16.35;14.95;;;23.90;1.00;;;;;;6118791;23;20167;-82
2023/05/21 10:45:23;;;;;;;16.80;15.20;;;24.20;1.00;;;;;;6145057;23;20171;-82
2023/05/21 10:48:11;;;;;;;15.80;14.40;;;24.30;1.00;;;;;;6067745;23;20163;-82
2023/05/21 10:50:48;;;;;;;15.65;14.20;;;24.30;1.00;;;;;;6099685;23;20643;-82
2023/05/21 10:53:32;;;;;;;16.73;15.23;;;24.20;1.00;;;;;;6118688;23;20159;-82
2023/05/21 10:56:16;;;;;;;15.80;14.43;;;24.10;1.00;;;;;;6145331;23;20152;-82
2023/05/21 10:58:53;;;;;;;16.05;14.55;;;24.20;1.00;;;;;;6144859;23;20425;-82
2023/05/21 11:01:20;;;;;;;15.27;14.00;;;24.00;1.00;;;;;;6144741;23;20223;-82
2023/05/21 11:03:47;;;;;;;14.68;13.48;;;23.90;1.00;;;;;;6118492;23;20620;-82
2023/05/21 11:06:23;;;;;;;14.57;13.27;;;24.00;1.00;;;;;;6145092;23;20179;-82
2023/05/21 11:08:52;;;;;;;15.15;13.77;;;24.10;1.00;;;;;;6145017;23;20180;-82
2023/05/21 11:11:45;;;;;;;14.82;13.60;;;24.10;1.00;;;;;;6118794;23;20622;-82
2023/05/21 11:14:37;;;;;;;14.18;12.88;;;24.30;1.00;;;;;;6118475;23;20152;-82
2023/05/21 11:17:12;;;;;;;15.10;13.85;;;24.50;1.00;;;;;;6118783;23;20207;-84
2023/05/21 11:19:50;;;;;;;15.73;14.23;;;24.30;1.00;;;;;;6118405;23;20186;-82
2023/05/21 11:22:18;;;;;;;14.82;13.52;;;24.00;1.00;;;;;;6118302;23;20159;-82
2023/05/21 11:24:44;;;;;;;14.55;13.13;;;24.10;1.00;;;;;;6144697;23;20184;-82
2023/05/21 11:27:11;;;;;;;15.55;13.85;;;24.50;1.00;;;;;;6118508;23;20503;-82
2023/05/21 11:29:42;;;;;;;15.18;13.77;;;25.00;1.00;;;;;;6144579;23;20175;-82
2023/05/21 11:32:09;;;;;;;14.63;13.32;;;24.90;1.00;;;;;;6118002;23;20159;-82
2023/05/21 11:34:40;;;;;;;15.23;13.85;;;24.70;1.00;;;;;;6118535;23;20164;-82
2023/05/21 11:37:19;;;;;;;14.73;13.35;;;24.30;1.00;;;;;;6144424;23;20171;-82
2023/05/21 11:39:45;;;;;;;15.38;14.07;;;24.20;1.00;;;;;;6118631;23;20175;-82
2023/05/21 11:42:11;;;;;;;15.13;13.80;;;24.20;1.00;;;;;;6144282;23;20298;-83
2023/05/21 11:44:41;;;;;;;14.73;13.35;;;24.40;1.00;;;;;;6144892;23;20156;-82
2023/05/21 11:47:09;;;;;;;14.93;13.68;;;24.40;1.00;;;;;;6118157;23;20600;-82
2023/05/21 11:49:36;;;;;;;14.82;13.52;;;24.10;1.00;;;;;;6118369;23;20259;-82
2023/05/21 11:52:06;;;;;;;15.07;13.68;;;24.20;1.00;;;;;;6118097;23;20163;-82
2023/05/21 11:54:37;;;;;;;15.25;14.05;;;24.30;1.00;;;;;;6118701;23;20667;-82
2023/05/21 11:57:06;;;;;;;15.90;14.52;;;24.10;1.00;;;;;;6118724;23;20525;-82
2023/05/21 11:59:33;;;;;;;15.75;14.25;;;24.00;1.00;;;;;;6118169;23;20179;-82
2023/05/21 12:01:58;;;;;;;15.68;14.38;;;24.30;1.00;;;;;;6144157;23;20323;-82
2023/05/21 12:04:29;;;;;;;15.45;13.95;;;24.50;1.00;;;;;;6144130;23;20151;-82
2023/05/21 12:06:57;;;;;;;14.98;13.57;;;24.90;1.00;;;;;;6144619;23;20235;-82
2023/05/21 12:09:23;;;;;;;14.85;13.55;;;25.10;1.00;;;;;;6118564;23;20512;-81
2023/05/21 12:11:50;;;;;;;14.10;12.93;;;25.20;1.00;;;;;;6144253;23;20603;-81
2023/05/21 12:14:16;;;;;;;14.73;13.25;;;25.50;1.00;;;;;;6118265;23;20201;-82
2023/05/21 12:16:41;;;;;;;13.85;12.68;;;25.50;1.00;;;;;;6118030;23;20160;-82
2023/05/21 12:19:07;;;;;;;14.05;12.82;;;25.60;1.00;;;;;;6118228;23;20246;-82
2023/05/21 12:21:34;;;;;;;13.70;12.52;;;25.50;1.00;;;;;;6117800;23;20171;-82
2023/05/21 12:23:59;;;;;;;13.93;12.82;;;25.60;1.00;;;;;;6118000;23;20351;-82
2023/05/21 12:26:26;;;;;;;16.02;14.43;;;25.60;1.00;;;;;;6118162;23;20198;-82
2023/05/21 12:28:56;;;;;;;14.55;13.25;;;25.60;1.00;;;;;;6143766;23;20199;-81
2023/05/21 12:31:23;;;;;;;15.02;13.80;;;26.00;1.00;;;;;;6117554;23;20618;-83
2023/05/21 12:33:50;;;;;;;15.00;13.70;;;26.20;1.00;;;;;;6145604;23;20152;-81